createdAt,value
2022-12-27T00:00:09.754Z,100410.44
2022-12-27T00:02:46.281Z,100418.53
2022-12-27T00:05:15.615Z,100417.75
2022-12-27T00:07:44.827Z,100430.50
2022-12-27T00:10:12.733Z,100423.19
2022-12-27T00:12:40.307Z,100424.91
2022-12-27T00:15:08.490Z,100421.81
2022-12-27T00:17:36.062Z,100421.47
2022-12-27T00:20:11.403Z,100430.44
2022-12-27T00:22:43.696Z,100419.88
2022-12-27T00:25:12.038Z,100420.94
2022-12-27T00:27:39.864Z,100422.38
2022-12-27T00:30:08.958Z,100425.97
2022-12-27T00:32:36.485Z,100433.41
2022-12-27T00:35:04.360Z,100430.03
2022-12-27T00:37:31.981Z,100433.28
2022-12-27T00:40:00.026Z,100420.78
2022-12-27T00:42:27.568Z,100422.81
2022-12-27T00:44:55.180Z,100423.97
2022-12-27T00:47:22.669Z,100413.94
2022-12-27T00:49:50.100Z,100413.75
2022-12-27T00:52:17.592Z,100408.22
2022-12-27T00:54:45.149Z,100410.56
2022-12-27T00:57:12.685Z,100414.75
2022-12-27T00:59:40.158Z,100416.91
2022-12-27T01:02:07.802Z,100405.75
2022-12-27T01:04:35.328Z,100406.34
2022-12-27T01:07:02.890Z,100402.66
2022-12-27T01:09:30.536Z,100408.09
2022-12-27T01:11:58.104Z,100406.84
2022-12-27T01:14:25.562Z,100399.66
2022-12-27T01:16:53.221Z,100399.88
2022-12-27T01:19:20.787Z,100399.94
2022-12-27T01:21:48.857Z,100398.47
2022-12-27T01:24:16.370Z,100400.28
2022-12-27T01:26:43.915Z,100393.53
2022-12-27T01:29:13.663Z,100392.44
2022-12-27T01:31:41.532Z,100386.47
2022-12-27T01:34:09.120Z,100379.69
2022-12-27T01:36:36.669Z,100382.63
2022-12-27T01:39:04.866Z,100380.06
2022-12-27T01:41:56.421Z,100371.97
2022-12-27T01:44:43.604Z,100376.38
2022-12-27T01:47:33.824Z,100382.56
2022-12-27T01:50:07.549Z,100382.88
2022-12-27T01:52:52.968Z,100374.94
2022-12-27T01:55:43.251Z,100379.19
2022-12-27T01:58:47.680Z,100380.31
2022-12-27T02:01:28.070Z,100372.53
2022-12-27T02:04:08.175Z,100369.38
2022-12-27T02:06:38.052Z,100363.41
2022-12-27T02:09:23.767Z,100367.50
2022-12-27T02:11:56.952Z,100358.53
2022-12-27T02:14:46.733Z,100362.06
2022-12-27T02:17:34.640Z,100367.00
2022-12-27T02:20:23.417Z,100351.88
2022-12-27T02:23:47.299Z,100358.19
2022-12-27T02:26:44.312Z,100361.53
2022-12-27T02:30:13.533Z,100363.28
2022-12-27T02:32:57.071Z,100354.38
2022-12-27T02:35:53.000Z,100357.25
2022-12-27T02:38:33.037Z,100354.56
2022-12-27T02:41:23.304Z,100351.34
2022-12-27T02:44:11.785Z,100365.22
2022-12-27T02:46:57.954Z,100349.81
2022-12-27T02:49:56.668Z,100342.59
2022-12-27T02:53:04.787Z,100339.22
2022-12-27T02:56:14.862Z,100344.22
2022-12-27T02:59:27.592Z,100340.78
2022-12-27T03:02:46.733Z,100331.06
2022-12-27T03:06:29.859Z,100342.53
2022-12-27T03:10:00.643Z,100344.56
2022-12-27T03:13:05.057Z,100355.13
2022-12-27T03:15:56.244Z,100345.53
2022-12-27T03:18:55.245Z,100353.34
2022-12-27T03:21:50.509Z,100346.72
2022-12-27T03:24:41.361Z,100347.88
2022-12-27T03:27:28.619Z,100336.50
2022-12-27T03:30:18.401Z,100334.34
2022-12-27T03:33:13.049Z,100320.56
2022-12-27T03:36:30.972Z,100337.53
2022-12-27T03:39:21.683Z,100339.09
2022-12-27T03:42:19.620Z,100334.03
2022-12-27T03:44:47.236Z,100330.22
2022-12-27T03:47:34.378Z,100329.00
2022-12-27T03:50:29.082Z,100322.47
2022-12-27T03:53:19.222Z,100324.03
2022-12-27T03:55:46.819Z,100316.97
2022-12-27T03:58:14.422Z,100321.44
2022-12-27T04:00:41.952Z,100323.94
2022-12-27T04:03:09.535Z,100325.38
2022-12-27T04:05:37.079Z,100324.59
2022-12-27T04:08:23.431Z,100337.72
2022-12-27T04:11:09.582Z,100340.00
2022-12-27T04:13:55.457Z,100338.22
2022-12-27T04:16:41.803Z,100327.88
2022-12-27T04:19:27.895Z,100337.84
2022-12-27T04:22:14.072Z,100321.25
2022-12-27T04:25:00.248Z,100322.03
2022-12-27T04:27:46.294Z,100319.56
2022-12-27T04:30:32.589Z,100324.31
2022-12-27T04:33:18.738Z,100331.13
2022-12-27T04:35:46.296Z,100333.16
2022-12-27T04:38:15.293Z,100338.22
2022-12-27T04:41:01.228Z,100342.50
2022-12-27T04:43:47.581Z,100336.66
2022-12-27T04:46:44.938Z,100337.22
2022-12-27T04:49:43.666Z,100332.25
2022-12-27T04:52:39.717Z,100339.56
2022-12-27T04:55:30.683Z,100332.81
2022-12-27T04:57:59.308Z,100343.81
2022-12-27T05:00:49.190Z,100337.34
2022-12-27T05:03:23.843Z,100346.75
2022-12-27T05:05:52.774Z,100343.38
2022-12-27T05:08:40.355Z,100346.63
2022-12-27T05:11:27.431Z,100348.53
2022-12-27T05:14:01.109Z,100344.84
2022-12-27T05:16:42.167Z,100339.88
2022-12-27T05:19:14.223Z,100342.78
2022-12-27T05:22:05.044Z,100342.44
2022-12-27T05:24:56.520Z,100347.53
2022-12-27T05:27:23.962Z,100351.47
2022-12-27T05:29:51.553Z,100342.47
2022-12-27T05:32:19.102Z,100342.56
2022-12-27T05:34:46.629Z,100354.13
2022-12-27T05:37:14.247Z,100346.41
2022-12-27T05:39:42.143Z,100350.56
2022-12-27T05:42:09.675Z,100356.63
2022-12-27T05:44:37.218Z,100354.34
2022-12-27T05:47:04.859Z,100349.50
2022-12-27T05:49:32.354Z,100361.69
2022-12-27T05:51:59.769Z,100366.19
2022-12-27T05:54:27.268Z,100355.06
2022-12-27T05:56:54.909Z,100353.41
2022-12-27T05:59:22.447Z,100352.28
2022-12-27T06:01:50.033Z,100356.31
2022-12-27T06:04:17.671Z,100359.13
2022-12-27T06:06:45.201Z,100364.19
2022-12-27T06:09:12.678Z,100353.84
2022-12-27T06:11:40.814Z,100361.69
2022-12-27T06:14:08.376Z,100364.72
2022-12-27T06:16:36.357Z,100371.00
2022-12-27T06:19:04.153Z,100365.94
2022-12-27T06:21:35.767Z,100369.09
2022-12-27T06:24:03.502Z,100374.72
2022-12-27T06:26:31.490Z,100371.66
2022-12-27T06:28:59.461Z,100383.59
2022-12-27T06:31:28.964Z,100389.13
2022-12-27T06:33:57.335Z,100388.47
2022-12-27T06:36:28.776Z,100385.63
2022-12-27T06:38:58.430Z,100397.44
2022-12-27T06:41:26.770Z,100382.59
2022-12-27T06:43:57.241Z,100383.72
2022-12-27T06:46:25.478Z,100385.06
2022-12-27T06:48:53.393Z,100376.28
2022-12-27T06:51:24.318Z,100373.31
2022-12-27T06:53:52.381Z,100372.25
2022-12-27T06:56:24.394Z,100376.13
2022-12-27T06:58:52.675Z,100380.16
2022-12-27T07:01:27.555Z,100374.69
2022-12-27T07:04:00.406Z,100379.03
2022-12-27T07:06:31.760Z,100374.81
2022-12-27T07:09:01.676Z,100354.09
2022-12-27T07:11:29.537Z,100362.84
2022-12-27T07:13:57.260Z,100363.41
2022-12-27T07:16:28.105Z,100370.69
2022-12-27T07:18:58.323Z,100368.25
2022-12-27T07:21:28.241Z,100366.09
2022-12-27T07:23:56.535Z,100354.69
2022-12-27T07:26:30.582Z,100357.34
2022-12-27T07:29:00.980Z,100353.94
2022-12-27T07:31:32.626Z,100351.63
2022-12-27T07:34:03.136Z,100365.91
2022-12-27T07:36:39.557Z,100362.50
2022-12-27T07:39:09.140Z,100363.25
2022-12-27T07:41:38.113Z,100365.47
2022-12-27T07:44:06.342Z,100371.75
2022-12-27T07:46:34.752Z,100359.81
2022-12-27T07:49:02.416Z,100361.34
2022-12-27T07:51:30.225Z,100361.91
2022-12-27T07:53:58.696Z,100364.00
2022-12-27T07:56:29.643Z,100355.16
2022-12-27T07:59:00.051Z,100361.94
2022-12-27T08:01:51.007Z,100370.53
2022-12-27T08:04:18.654Z,100371.53
2022-12-27T08:06:47.416Z,100374.88
2022-12-27T08:09:18.403Z,100373.19
2022-12-27T08:11:46.251Z,100366.66
2022-12-27T08:14:13.852Z,100365.50
2022-12-27T08:16:41.738Z,100368.53
2022-12-27T08:19:09.211Z,100369.63
2022-12-27T08:21:36.748Z,100353.78
2022-12-27T08:24:04.628Z,100357.00
2022-12-27T08:26:32.256Z,100351.22
2022-12-27T08:28:59.838Z,100348.09
2022-12-27T08:31:27.385Z,100348.47
2022-12-27T08:33:58.813Z,100351.09
2022-12-27T08:36:56.809Z,100344.91
2022-12-27T08:39:14.258Z,100343.56
2022-12-27T08:41:42.899Z,100345.03
2022-12-27T08:44:11.603Z,100350.50
2022-12-27T08:46:39.718Z,100345.41
2022-12-27T08:49:08.001Z,100352.97
2022-12-27T08:51:40.745Z,100343.44
2022-12-27T08:54:09.412Z,100341.88
2022-12-27T08:56:38.587Z,100343.06
2022-12-27T08:59:06.194Z,100338.13
2022-12-27T09:01:33.885Z,100327.56
2022-12-27T09:04:01.760Z,100333.53
2022-12-27T09:06:29.329Z,100329.47
2022-12-27T09:08:57.640Z,100329.28
2022-12-27T09:11:33.561Z,100331.81
2022-12-27T09:14:05.219Z,100323.38
2022-12-27T09:16:37.312Z,100321.88
2022-12-27T09:19:05.170Z,100313.72
2022-12-27T09:21:35.168Z,100313.88
2022-12-27T09:24:03.263Z,100306.59
2022-12-27T09:26:31.660Z,100303.97
2022-12-27T09:29:03.236Z,100295.13
2022-12-27T09:31:31.283Z,100298.81
2022-12-27T09:33:59.428Z,100295.56
2022-12-27T09:36:29.725Z,100288.06
2022-12-27T09:38:59.410Z,100283.44
2022-12-27T09:44:59.696Z,100277.91
2022-12-27T09:47:53.629Z,100283.38
2022-12-27T09:50:33.655Z,100277.06
2022-12-27T09:53:14.055Z,100272.66
2022-12-27T09:55:50.477Z,100268.78
2022-12-27T09:58:42.238Z,100257.00
2022-12-27T10:01:21.962Z,100259.22
2022-12-27T10:03:50.886Z,100257.06
2022-12-27T10:06:45.474Z,100244.31
2022-12-27T10:09:44.153Z,100242.09
2022-12-27T10:12:39.135Z,100236.13
2022-12-27T10:15:27.541Z,100231.81
2022-12-27T10:18:29.192Z,100231.16
2022-12-27T10:21:18.406Z,100222.78
2022-12-27T10:24:16.616Z,100220.59
2022-12-27T10:26:44.582Z,100210.53
2022-12-27T10:29:24.097Z,100206.03
2022-12-27T10:31:54.642Z,100187.63
2022-12-27T10:34:24.708Z,100187.38
2022-12-27T10:36:54.805Z,100197.31
2022-12-27T10:39:28.852Z,100204.56
2022-12-27T10:42:23.534Z,100198.97
2022-12-27T10:44:51.321Z,100194.69
2022-12-27T10:47:19.576Z,100195.16
2022-12-27T10:50:14.213Z,100190.75
2022-12-27T10:52:41.743Z,100186.63
2022-12-27T10:55:39.708Z,100185.56
2022-12-27T10:58:42.827Z,100184.69
2022-12-27T11:01:28.290Z,100186.56
2022-12-27T11:04:26.199Z,100188.72
2022-12-27T11:07:00.177Z,100174.84
2022-12-27T11:09:35.071Z,100182.41
2022-12-27T11:12:29.150Z,100171.75
2022-12-27T11:14:59.896Z,100180.69
2022-12-27T11:17:43.187Z,100165.28
2022-12-27T11:20:31.969Z,100168.16
2022-12-27T11:23:15.206Z,100159.53
2022-12-27T11:26:04.875Z,100155.00
2022-12-27T11:28:48.013Z,100148.69
2022-12-27T11:31:30.493Z,100139.94
2022-12-27T11:34:09.058Z,100141.94
2022-12-27T11:36:42.227Z,100134.66
2022-12-27T11:39:56.972Z,100139.81
2022-12-27T11:42:42.283Z,100126.94
2022-12-27T11:45:16.549Z,100132.59
2022-12-27T11:47:53.594Z,100143.44
2022-12-27T11:50:48.050Z,100142.84
2022-12-27T11:54:00.386Z,100145.91
2022-12-27T11:56:31.167Z,100135.72
2022-12-27T11:59:33.748Z,100138.38
2022-12-27T12:02:51.830Z,100128.38
2022-12-27T12:05:19.473Z,100128.22
2022-12-27T12:08:05.287Z,100122.88
2022-12-27T12:11:23.707Z,100119.31
2022-12-27T12:14:11.718Z,100119.59
2022-12-27T12:16:57.413Z,100115.47
2022-12-27T12:20:34.246Z,100121.09
2022-12-27T12:23:10.545Z,100118.06
2022-12-27T12:26:12.152Z,100119.47
2022-12-27T12:28:59.776Z,100119.31
2022-12-27T12:32:03.687Z,100121.63
2022-12-27T12:35:18.664Z,100103.09
2022-12-27T12:38:21.965Z,100113.19
2022-12-27T12:40:52.338Z,100112.66
2022-12-27T12:44:01.077Z,100109.84
2022-12-27T12:47:05.547Z,100108.00
2022-12-27T12:50:29.045Z,100121.19
2022-12-27T12:53:44.604Z,100121.28
2022-12-27T12:56:33.080Z,100127.72
2022-12-27T13:00:01.363Z,100130.81
2022-12-27T13:03:10.393Z,100120.31
2022-12-27T13:06:16.856Z,100121.53
2022-12-27T13:09:03.118Z,100128.50
2022-12-27T13:12:00.766Z,100120.28
2022-12-27T13:14:51.153Z,100126.53
2022-12-27T13:17:42.785Z,100126.19
2022-12-27T13:20:40.248Z,100122.00
2022-12-27T13:23:41.880Z,100113.88
2022-12-27T13:26:45.424Z,100113.13
2022-12-27T13:29:39.463Z,100113.22
2022-12-27T13:32:22.381Z,100118.06
2022-12-27T13:35:11.141Z,100119.81
2022-12-27T13:38:07.407Z,100125.19
2022-12-27T13:41:11.783Z,100111.25
2022-12-27T13:44:15.688Z,100111.16
2022-12-27T13:47:29.550Z,100116.69
2022-12-27T13:50:17.873Z,100111.81
2022-12-27T13:53:03.809Z,100114.03
2022-12-27T13:55:54.191Z,100114.47
2022-12-27T13:58:48.478Z,100122.06
2022-12-27T14:01:30.914Z,100125.19
2022-12-27T14:04:24.243Z,100126.88
2022-12-27T14:07:28.317Z,100119.03
2022-12-27T14:10:35.327Z,100122.75
2022-12-27T14:13:09.638Z,100111.56
2022-12-27T14:16:01.951Z,100116.50
2022-12-27T14:19:05.824Z,100105.88
2022-12-27T14:21:57.696Z,100106.09
2022-12-27T14:25:09.329Z,100104.31
2022-12-27T14:28:16.681Z,100103.84
2022-12-27T14:31:22.859Z,100106.63
2022-12-27T14:34:28.406Z,100108.16
2022-12-27T14:37:26.148Z,100112.00
2022-12-27T14:40:17.972Z,100121.78
2022-12-27T14:43:36.140Z,100123.03
2022-12-27T14:46:52.393Z,100126.47
2022-12-27T14:49:59.477Z,100124.69
2022-12-27T14:52:42.589Z,100132.44
2022-12-27T14:55:34.605Z,100138.91
2022-12-27T14:58:56.453Z,100145.19
2022-12-27T15:01:59.169Z,100138.84
2022-12-27T15:05:25.962Z,100139.38
2022-12-27T15:08:20.162Z,100135.75
2022-12-27T15:11:25.258Z,100129.31
2022-12-27T15:14:29.070Z,100151.06
2022-12-27T15:17:17.939Z,100153.56
2022-12-27T15:20:45.752Z,100153.72
2022-12-27T15:23:53.251Z,100169.06
2022-12-27T15:26:58.330Z,100158.97
2022-12-27T15:30:05.506Z,100154.81
2022-12-27T15:32:57.788Z,100166.31
2022-12-27T15:35:56.021Z,100163.28
2022-12-27T15:38:54.927Z,100167.94
2022-12-27T15:42:11.941Z,100160.81
2022-12-27T15:45:12.369Z,100163.47
2022-12-27T15:48:12.141Z,100164.41
2022-12-27T15:51:05.352Z,100169.41
2022-12-27T15:54:09.443Z,100177.91
2022-12-27T15:57:01.862Z,100180.59
2022-12-27T15:59:51.250Z,100189.13
2022-12-27T16:02:24.006Z,100197.47
2022-12-27T16:05:12.796Z,100205.38
2022-12-27T16:07:46.441Z,100208.97
2022-12-27T16:10:32.473Z,100209.75
2022-12-27T16:13:39.434Z,100220.44
2022-12-27T16:16:32.404Z,100224.00
2022-12-27T16:19:11.537Z,100222.41
2022-12-27T16:21:47.020Z,100228.69
2022-12-27T16:24:23.157Z,100226.38
2022-12-27T16:27:05.623Z,100245.97
2022-12-27T16:29:37.847Z,100246.47
2022-12-27T16:32:21.133Z,100246.97
2022-12-27T16:34:55.965Z,100254.91
2022-12-27T16:37:55.772Z,100255.22
2022-12-27T16:40:35.443Z,100254.66
2022-12-27T16:43:08.826Z,100262.16
2022-12-27T16:45:39.664Z,100261.97
2022-12-27T16:48:25.717Z,100273.38
2022-12-27T16:50:58.012Z,100270.56
2022-12-27T16:54:10.966Z,100278.53
2022-12-27T16:56:44.867Z,100280.78
2022-12-27T17:00:18.039Z,100278.00
2022-12-27T17:02:47.761Z,100278.97
2022-12-27T17:05:15.256Z,100278.97
2022-12-27T17:08:13.301Z,100288.44
2022-12-27T17:10:52.609Z,100293.81
2022-12-27T17:13:48.188Z,100287.69
2022-12-27T17:16:34.472Z,100296.50
2022-12-27T17:19:17.644Z,100300.69
2022-12-27T17:21:47.222Z,100296.31
2022-12-27T17:24:21.243Z,100288.81
2022-12-27T17:27:25.409Z,100295.72
2022-12-27T17:30:02.589Z,100299.16
2022-12-27T17:33:10.320Z,100302.59
2022-12-27T17:35:50.652Z,100298.81
2022-12-27T17:38:52.093Z,100292.53
2022-12-27T17:41:51.477Z,100294.88
2022-12-27T17:44:48.070Z,100305.31
2022-12-27T17:47:59.393Z,100309.50
2022-12-27T17:50:29.640Z,100313.00
2022-12-27T17:53:37.027Z,100308.91
2022-12-27T17:56:36.439Z,100316.69
2022-12-27T17:59:13.735Z,100307.19
2022-12-27T18:01:53.680Z,100305.25
2022-12-27T18:04:33.673Z,100310.97
2022-12-27T18:07:48.723Z,100309.56
2022-12-27T18:10:21.860Z,100308.06
2022-12-27T18:13:00.178Z,100322.78
2022-12-27T18:15:34.199Z,100326.84
2022-12-27T18:18:08.304Z,100321.97
2022-12-27T18:20:42.768Z,100328.22
2022-12-27T18:23:11.992Z,100326.28
2022-12-27T18:25:45.505Z,100330.84
2022-12-27T18:28:33.926Z,100341.63
2022-12-27T18:31:36.822Z,100334.84
2022-12-27T18:34:17.274Z,100357.41
2022-12-27T18:37:07.174Z,100360.81
2022-12-27T18:39:42.325Z,100360.34
2022-12-27T18:42:24.873Z,100361.91
2022-12-27T18:45:00.597Z,100364.44
2022-12-27T18:47:28.964Z,100357.69
2022-12-27T18:50:00.336Z,100370.38
2022-12-27T18:52:38.483Z,100361.91
2022-12-27T18:55:29.463Z,100369.09
2022-12-27T18:58:20.907Z,100377.38
2022-12-27T19:00:55.554Z,100377.69
2022-12-27T19:03:23.340Z,100381.66
2022-12-27T19:06:06.050Z,100383.81
2022-12-27T19:08:44.437Z,100382.16
2022-12-27T19:11:29.365Z,100391.69
2022-12-27T19:14:01.840Z,100381.88
2022-12-27T19:16:36.833Z,100390.72
2022-12-27T19:19:26.751Z,100395.19
2022-12-27T19:21:59.391Z,100387.38
2022-12-27T19:24:35.321Z,100382.69
2022-12-27T19:27:23.834Z,100397.34
2022-12-27T19:29:53.641Z,100398.28
2022-12-27T19:32:32.322Z,100401.16
2022-12-27T19:35:03.993Z,100400.16
2022-12-27T19:37:33.764Z,100398.72
2022-12-27T19:40:02.191Z,100397.69
2022-12-27T19:42:33.315Z,100405.47
2022-12-27T19:45:04.145Z,100409.19
2022-12-27T19:47:32.663Z,100404.19
2022-12-27T19:50:00.170Z,100405.16
2022-12-27T19:52:28.187Z,100413.31
2022-12-27T19:55:09.562Z,100420.06
2022-12-27T19:57:40.125Z,100422.91
2022-12-27T20:00:16.295Z,100419.09
2022-12-27T20:02:46.012Z,100425.25
2022-12-27T20:05:13.911Z,100428.84
2022-12-27T20:07:42.058Z,100429.09
2022-12-27T20:10:15.275Z,100438.22
2022-12-27T20:12:42.840Z,100433.81
2022-12-27T20:15:10.917Z,100432.59
2022-12-27T20:17:44.577Z,100445.13
2022-12-27T20:20:14.731Z,100445.31
2022-12-27T20:22:42.529Z,100441.63
2022-12-27T20:25:13.820Z,100443.41
2022-12-27T20:27:41.416Z,100436.03
2022-12-27T20:30:10.462Z,100444.28
2022-12-27T20:32:38.105Z,100440.44
2022-12-27T20:35:06.743Z,100451.72
2022-12-27T20:37:34.373Z,100448.59
2022-12-27T20:40:02.092Z,100439.56
2022-12-27T20:42:29.892Z,100441.03
2022-12-27T20:44:57.626Z,100444.19
2022-12-27T20:47:25.295Z,100446.06
2022-12-27T20:49:53.325Z,100448.03
2022-12-27T20:52:24.361Z,100449.00
2022-12-27T20:54:56.884Z,100452.78
2022-12-27T20:57:24.563Z,100450.56
2022-12-27T20:59:52.256Z,100457.47
2022-12-27T21:02:20.533Z,100463.44
2022-12-27T21:04:48.247Z,100462.16
2022-12-27T21:07:15.769Z,100462.44
2022-12-27T21:09:43.255Z,100455.81
2022-12-27T21:12:10.747Z,100459.38
2022-12-27T21:14:38.737Z,100466.44
2022-12-27T21:17:06.700Z,100461.06
2022-12-27T21:19:34.308Z,100470.03
2022-12-27T21:22:01.930Z,100463.78
2022-12-27T21:24:29.539Z,100459.53
2022-12-27T21:26:57.039Z,100458.69
2022-12-27T21:29:27.721Z,100466.94
2022-12-27T21:31:55.320Z,100476.78
2022-12-27T21:34:22.870Z,100480.44
2022-12-27T21:36:53.528Z,100476.97
2022-12-27T21:39:21.435Z,100480.50
2022-12-27T21:41:49.058Z,100477.97
2022-12-27T21:44:16.660Z,100489.13
2022-12-27T21:46:44.967Z,100479.41
2022-12-27T21:49:16.073Z,100486.19
2022-12-27T21:51:44.784Z,100487.47
2022-12-27T21:54:13.944Z,100490.38
2022-12-27T21:56:41.773Z,100491.72
2022-12-27T21:59:12.531Z,100497.97
2022-12-27T22:01:50.625Z,100495.06
2022-12-27T22:04:22.871Z,100489.00
2022-12-27T22:06:50.915Z,100483.78
2022-12-27T22:09:19.570Z,100476.41
2022-12-27T22:11:47.950Z,100481.88
2022-12-27T22:14:15.522Z,100486.25
2022-12-27T22:16:43.365Z,100486.16
2022-12-27T22:19:12.775Z,100482.31
2022-12-27T22:21:41.715Z,100480.75
2022-12-27T22:24:19.461Z,100488.25
2022-12-27T22:26:48.799Z,100498.28
2022-12-27T22:29:16.516Z,100499.41
2022-12-27T22:31:44.031Z,100499.81
2022-12-27T22:34:11.538Z,100500.97
2022-12-27T22:36:39.045Z,100497.25
2022-12-27T22:39:06.659Z,100501.78
2022-12-27T22:41:36.770Z,100507.41
2022-12-27T22:44:08.201Z,100506.63
2022-12-27T22:47:06.812Z,100508.25
2022-12-27T22:49:24.240Z,100501.00
2022-12-27T22:51:51.731Z,100504.31
2022-12-27T22:54:19.371Z,100506.75
2022-12-27T22:56:47.492Z,100515.84
2022-12-27T22:59:17.094Z,100515.16
2022-12-27T23:01:46.158Z,100517.75
2022-12-27T23:04:15.158Z,100517.94
2022-12-27T23:06:43.203Z,100526.28
2022-12-27T23:09:13.842Z,100523.28
2022-12-27T23:11:42.239Z,100521.97
2022-12-27T23:14:16.096Z,100516.81
2022-12-27T23:16:47.903Z,100526.75
2022-12-27T23:19:19.522Z,100525.91
2022-12-27T23:21:47.681Z,100523.63
2022-12-27T23:24:15.603Z,100527.81
2022-12-27T23:26:43.467Z,100521.41
2022-12-27T23:29:14.995Z,100513.88
2022-12-27T23:31:54.806Z,100520.94
2022-12-27T23:34:29.322Z,100521.94
2022-12-27T23:37:01.279Z,100524.25
2022-12-27T23:39:29.145Z,100527.69
2022-12-27T23:41:56.783Z,100531.66
2022-12-27T23:44:33.837Z,100543.47
2022-12-27T23:47:06.240Z,100532.41
2022-12-27T23:49:34.738Z,100530.75
2022-12-27T23:52:03.526Z,100527.09
2022-12-27T23:54:31.469Z,100523.75
2022-12-27T23:57:20.644Z,100537.66
2022-12-27T23:59:46.630Z,100546.53
